Time;durP1;ratioP1;P1;durP2;ratioP2;P2;SDS_P1;SDS_P2;PMS_P1;PMS_P2;Temp;Humidity;BMP_temperature;BMP_pressure;BME280_temperature;BME280_humidity;BME280_pressure;Samples;Min_cycle;Max_cycle;Signal;HPM_P1;HPM_P2
2021/10/15 00:00:07;;;;;;;2.98;1.10;;;;;;;9.42;91.90;99067.12;1663267;84;22304;-63
2021/10/15 00:02:36;;;;;;;1.00;0.90;;;;;;;9.44;91.88;99065.72;1675172;83;20994;-63
2021/10/15 00:05:02;;;;;;;2.15;0.90;;;;;;;9.44;91.89;99053.56;1669843;84;20927;-63
2021/10/15 00:07:29;;;;;;;1.85;0.90;;;;;;;9.42;91.86;99064.52;1669489;84;21064;-63
2021/10/15 00:09:56;;;;;;;2.65;1.00;;;;;;;9.40;91.90;99053.33;1670884;84;21663;-63
2021/10/15 00:12:23;;;;;;;1.02;0.90;;;;;;;9.43;91.97;99062.28;1686502;83;21072;-63
2021/10/15 00:14:50;;;;;;;3.15;1.05;;;;;;;9.41;91.96;99051.13;1684809;83;21068;-63
2021/10/15 00:17:17;;;;;;;2.05;1.17;;;;;;;9.43;92.00;99047.95;1667968;84;21548;-63
2021/10/15 00:19:43;;;;;;;;;;;;;;;9.45;92.04;99047.42;1691156;83;20997;-63
2021/10/15 00:22:11;;;;;;;4.77;1.30;;;;;;;9.47;92.12;99049.48;1686865;83;20190;-63
2021/10/15 00:28:30;;;;;;;2.85;1.45;;;;;;;9.48;92.12;99040.73;1709166;78;20970;-62
2021/10/15 00:30:58;;;;;;;1.83;1.00;;;;;;;9.51;92.13;99039.73;1702828;82;21018;-63
2021/10/15 00:33:25;;;;;;;3.05;1.60;;;;;;;9.50;92.14;99040.20;1703721;82;21157;-64
2021/10/15 00:35:52;;;;;;;3.05;1.60;;;;;;;9.51;92.18;99039.27;1703671;82;21025;-64
2021/10/15 00:38:18;;;;;;;2.95;1.42;;;;;;;9.53;92.22;99038.73;1702217;82;21671;-63
2021/10/15 00:40:46;;;;;;;2.60;1.60;;;;;;;9.52;92.19;99033.15;1696935;82;21522;-63
2021/10/15 00:43:12;;;;;;;4.62;1.60;;;;;;;9.52;92.21;99027.94;1645869;85;21106;-64
2021/10/15 00:45:39;;;;;;;2.05;1.70;;;;;;;9.53;92.28;99020.48;1650544;85;21006;-63
2021/10/15 00:48:06;;;;;;;1.67;1.30;;;;;;;9.54;92.27;99019.55;1688240;83;21041;-63
2021/10/15 00:50:33;;;;;;;2.20;1.57;;;;;;;9.57;92.31;99021.16;1699255;82;21449;-63
2021/10/15 00:52:59;;;;;;;4.20;1.70;;;;;;;9.57;92.26;99018.08;1698054;82;21502;-64
2021/10/15 00:55:26;;;;;;;2.37;1.57;;;;;;;9.59;92.26;99005.81;1701862;82;21615;-62
2021/10/15 00:57:53;;;;;;;3.02;1.67;;;;;;;9.58;92.29;99008.05;1699946;82;21016;-62
2021/10/15 01:00:20;;;;;;;10.67;2.20;;;;;;;9.59;92.30;99012.33;1702082;82;21506;-64
2021/10/15 01:02:46;;;;;;;4.50;2.27;;;;;;;9.60;92.34;99007.95;1699888;82;21118;-63
2021/10/15 01:05:13;;;;;;;2.60;1.67;;;;;;;9.62;92.35;99008.72;1701552;82;21004;-64
2021/10/15 01:07:40;;;;;;;4.62;2.05;;;;;;;9.64;92.37;99010.31;1705717;82;21097;-63
2021/10/15 01:10:08;;;;;;;5.13;1.93;;;;;;;9.64;92.37;99007.72;1664990;84;22003;-63
2021/10/15 01:12:41;;;;;;;3.42;1.90;;;;;;;9.64;92.35;99007.72;1701059;82;21052;-63
2021/10/15 01:15:09;;;;;;;3.05;1.55;;;;;;;9.67;92.37;99008.48;1648722;85;21493;-63
2021/10/15 01:17:36;;;;;;;;;;;;;;;9.67;92.36;99001.49;1678157;84;21022;-63
2021/10/15 01:20:04;;;;;;;2.55;1.40;;;;;;;9.67;92.36;98996.28;1647430;85;20255;-63
2021/10/15 01:22:31;;;;;;;4.17;1.85;;;;;;;9.67;92.35;98994.14;1705769;82;21030;-63
2021/10/15 01:24:59;;;;;;;3.47;1.45;;;;;;;9.67;92.38;98991.53;1647122;85;20969;-63
2021/10/15 01:27:26;;;;;;;2.25;1.52;;;;;;;9.67;92.38;98993.67;1683205;82;21113;-63
2021/10/15 01:29:53;;;;;;;2.92;1.62;;;;;;;9.69;92.40;98990.53;1701766;82;20908;-63
2021/10/15 01:32:20;;;;;;;3.20;1.87;;;;;;;9.70;92.31;98982.23;1702285;82;20991;-63
2021/10/15 01:34:47;;;;;;;3.52;2.25;;;;;;;9.71;92.42;98986.52;1694194;82;21075;-63
2021/10/15 01:37:14;;;;;;;4.17;1.63;;;;;;;9.71;92.37;98976.09;1739225;80;21095;-63
2021/10/15 01:39:41;;;;;;;2.70;1.67;;;;;;;9.71;92.40;98980.00;1741004;80;21042;-63
2021/10/15 01:42:53;;;;;;;3.37;1.90;;;;;;;9.71;92.39;98981.30;1732099;80;21065;-63
2021/10/15 01:44:37;;;;;;;8.20;2.87;;;;;;;9.72;92.38;98975.15;1743463;80;20990;-63
2021/10/15 01:47:04;;;;;;;5.60;2.62;;;;;;;9.71;92.38;98976.09;1742739;80;20903;-63
2021/10/15 01:49:31;;;;;;;3.70;2.58;;;;;;;9.70;92.43;98977.02;1736126;80;21070;-63
2021/10/15 01:51:58;;;;;;;5.03;2.20;;;;;;;9.68;92.35;98964.06;1730115;80;23275;-63
2021/10/15 01:54:24;;;;;;;6.43;2.50;;;;;;;9.67;92.36;98962.39;1732686;80;20970;-63
2021/10/15 01:56:51;;;;;;;4.80;2.63;;;;;;;9.64;92.38;98963.41;1736150;80;20986;-63
2021/10/15 01:59:18;;;;;;;8.20;2.80;;;;;;;9.64;92.42;98952.14;1705055;82;20979;-63
2021/10/15 02:01:45;;;;;;;5.37;2.83;;;;;;;9.63;92.43;98956.52;1703250;82;20995;-63
2021/10/15 02:04:11;;;;;;;7.28;3.12;;;;;;;9.63;92.44;98957.82;1705731;82;21089;-63
2021/10/15 02:06:38;;;;;;;4.85;3.08;;;;;;;9.64;92.49;98956.88;1671842;83;21637;-63
2021/10/15 02:09:05;;;;;;;5.80;2.72;;;;;;;9.64;92.45;98946.45;1701224;82;21048;-63
2021/10/15 02:11:32;;;;;;;6.70;3.55;;;;;;;9.64;92.48;98947.77;1704712;82;21012;-63
2021/10/15 02:13:59;;;;;;;4.17;2.93;;;;;;;9.64;92.48;98944.32;1701397;82;21510;-63
2021/10/15 02:16:26;;;;;;;4.50;2.92;;;;;;;9.64;92.47;98946.45;1705255;82;21080;-63
2021/10/15 02:18:52;;;;;;;6.92;3.52;;;;;;;9.64;92.45;98941.25;1705751;82;20903;-63
2021/10/15 02:22:14;;;;;;;6.22;3.40;;;;;;;9.69;92.53;98941.44;1781120;77;27798;-62
2021/10/15 02:24:41;;;;;;;5.75;3.22;;;;;;;9.66;92.49;98946.83;1756813;79;21031;-62
2021/10/15 02:27:08;;;;;;;5.47;3.27;;;;;;;9.67;92.47;98948.06;1737891;81;21160;-63
2021/10/15 02:29:35;;;;;;;3.97;3.00;;;;;;;9.68;92.45;98937.16;1759560;80;21190;-62
2021/10/15 02:32:01;;;;;;;6.20;3.83;;;;;;;9.69;92.44;98946.66;1760688;79;21500;-62
2021/10/15 02:34:28;;;;;;;7.43;3.90;;;;;;;9.70;92.43;98945.74;1769791;79;21028;-62
2021/10/15 02:36:55;;;;;;;5.87;3.90;;;;;;;9.68;92.42;98942.37;1759629;79;20858;-63
2021/10/15 02:39:23;;;;;;;7.83;4.20;;;;;;;9.67;92.41;98935.49;1761507;79;21055;-63
2021/10/15 02:41:52;;;;;;;5.67;3.55;;;;;;;9.68;92.43;98933.25;1764335;79;20924;-63
2021/10/15 02:44:19;;;;;;;6.65;3.50;;;;;;;9.69;92.42;98932.31;1753818;80;21551;-63
2021/10/15 02:46:46;;;;;;;8.20;4.30;;;;;;;9.69;92.42;98924.06;1752518;79;21075;-63
2021/10/15 02:49:12;;;;;;;7.78;4.10;;;;;;;9.69;92.41;98932.31;1747449;79;20981;-63
2021/10/15 02:51:39;;;;;;;6.58;3.98;;;;;;;9.70;92.41;98924.89;1747326;80;21467;-63
2021/10/15 02:54:06;;;;;;;7.07;3.90;;;;;;;9.69;92.32;98925.80;1746332;79;20995;-63
2021/10/15 02:56:33;;;;;;;9.33;4.17;;;;;;;9.68;92.35;98924.96;1745782;80;20952;-63
2021/10/15 02:58:59;;;;;;;10.35;3.80;;;;;;;9.69;92.35;98923.19;1746545;80;20917;-63
2021/10/15 03:01:26;;;;;;;6.00;4.00;;;;;;;9.69;92.38;98923.19;1775644;79;21143;-63
2021/10/15 03:03:53;;;;;;;5.07;4.10;;;;;;;9.70;92.36;98918.37;1745652;80;21803;-63
2021/10/15 03:06:19;;;;;;;5.63;3.67;;;;;;;9.70;92.34;98910.09;1757274;79;20893;-63
2021/10/15 03:08:46;;;;;;;5.10;4.03;;;;;;;9.69;92.28;98920.58;1741799;80;21046;-63
2021/10/15 03:11:14;;;;;;;4.67;3.75;;;;;;;9.66;92.24;98912.94;1763556;79;21059;-63
2021/10/15 03:13:41;;;;;;;6.75;3.90;;;;;;;9.63;92.23;98914.81;1762894;81;21046;-63
2021/10/15 03:16:07;;;;;;;5.57;3.80;;;;;;;9.61;92.25;98916.66;1763846;78;21095;-63
2021/10/15 03:18:34;;;;;;;7.53;4.57;;;;;;;9.62;92.24;98902.69;1762261;79;21187;-63
2021/10/15 03:21:01;;;;;;;8.80;4.25;;;;;;;9.61;92.21;98900.19;1742241;79;21613;-62
2021/10/15 03:23:29;;;;;;;8.90;4.17;;;;;;;9.60;92.20;98901.93;1737079;81;22105;-63
2021/10/15 03:25:56;;;;;;;9.48;4.60;;;;;;;9.58;92.14;98903.80;1738996;81;21111;-62
2021/10/15 03:28:23;;;;;;;;;;;;;;;9.60;92.18;98905.00;1746586;81;21122;-63
2021/10/15 03:30:49;;;;;;;7.37;4.42;;;;;;;9.58;92.14;98894.68;1738610;81;20205;-63
2021/10/15 03:33:17;;;;;;;7.40;4.37;;;;;;;9.56;92.12;98899.12;1728723;81;21613;-63
2021/10/15 03:35:43;;;;;;;7.53;4.05;;;;;;;9.55;92.09;98879.22;1742563;80;21021;-63
2021/10/15 03:38:10;;;;;;;9.10;4.73;;;;;;;9.54;92.08;98891.85;1738154;81;21002;-63
2021/10/15 03:40:37;;;;;;;7.17;3.77;;;;;;;9.54;92.08;98887.95;1737911;81;21566;-63
2021/10/15 03:43:04;;;;;;;4.97;3.98;;;;;;;9.53;92.03;98882.37;1737352;81;21523;-63
2021/10/15 03:45:31;;;;;;;7.00;4.47;;;;;;;9.54;91.99;98877.52;1736662;81;21076;-63
2021/10/15 03:47:57;;;;;;;6.12;4.33;;;;;;;9.52;91.94;98888.52;1741061;81;21107;-63
2021/10/15 03:50:24;;;;;;;8.93;4.25;;;;;;;9.50;91.96;98895.57;1734901;81;21081;-63
2021/10/15 03:52:51;;;;;;;6.30;4.42;;;;;;;9.51;91.97;98885.52;1735487;81;21158;-63
2021/10/15 03:55:18;;;;;;;6.23;4.10;;;;;;;9.52;91.95;98885.05;1731637;81;21531;-63
2021/10/15 03:57:45;;;;;;;7.42;3.87;;;;;;;9.52;91.95;98883.30;1732727;81;20965;-62
2021/10/15 04:00:13;;;;;;;6.75;4.40;;;;;;;9.52;91.93;98870.28;1727846;81;21284;-63
2021/10/15 04:02:43;;;;;;;9.18;4.15;;;;;;;9.52;91.89;98865.06;1736997;81;22460;-63
2021/10/15 04:05:11;;;;;;;7.28;4.20;;;;;;;9.51;91.82;98868.58;1734850;81;21155;-62
2021/10/15 04:07:38;;;;;;;7.90;4.28;;;;;;;9.53;91.84;98868.50;1733112;81;20951;-63
2021/10/15 04:10:07;;;;;;;;;;;;;;;9.53;91.81;98864.13;1737040;81;21523;-62
2021/10/15 04:12:35;;;;;;;6.67;3.47;;;;;;;9.54;91.80;98861.88;1730616;81;20428;-63
2021/10/15 04:15:04;;;;;;;6.62;4.70;;;;;;;9.55;91.77;98864.02;1738701;81;20913;-63
2021/10/15 04:17:30;;;;;;;6.58;4.25;;;;;;;9.54;91.69;98859.28;1729392;81;21222;-62
2021/10/15 04:19:57;;;;;;;7.53;4.17;;;;;;;9.53;91.69;98855.00;1738462;80;21746;-64
2021/10/15 04:22:25;;;;;;;7.70;3.92;;;;;;;9.54;91.62;98868.40;1730989;81;21667;-64
2021/10/15 04:24:53;;;;;;;7.03;4.08;;;;;;;9.53;91.58;98860.22;1751078;80;21064;-63
2021/10/15 04:27:19;;;;;;;;;;;;;;;9.51;91.55;98852.94;1724208;81;21073;-62
2021/10/15 04:29:46;;;;;;;7.12;4.53;;;;;;;9.51;91.51;98849.50;1726291;81;20922;-63
2021/10/15 04:32:13;;;;;;;6.62;4.50;;;;;;;9.48;91.50;98846.60;1731128;81;22292;-62
2021/10/15 04:34:39;;;;;;;8.68;4.58;;;;;;;9.45;91.44;98844.17;1720952;81;21066;-62
2021/10/15 04:37:06;;;;;;;6.78;4.12;;;;;;;9.41;91.40;98842.21;1745563;81;21015;-63
2021/10/15 04:39:32;;;;;;;6.43;3.83;;;;;;;9.37;91.43;98833.34;1757073;80;21012;-62
2021/10/15 04:41:59;;;;;;;7.80;4.30;;;;;;;9.37;91.43;98833.34;1756545;80;21076;-62
2021/10/15 04:44:26;;;;;;;9.37;4.87;;;;;;;9.35;91.37;98846.91;1757376;81;21571;-63
2021/10/15 04:46:52;;;;;;;5.80;4.40;;;;;;;9.31;91.37;98833.70;1732781;80;20953;-62
2021/10/15 04:49:19;;;;;;;4.37;3.92;;;;;;;9.30;91.37;98834.16;1730159;81;21555;-62
2021/10/15 04:51:46;;;;;;;7.47;4.20;;;;;;;9.29;91.41;98837.67;1736490;81;21068;-62
2021/10/15 04:54:13;;;;;;;7.53;4.50;;;;;;;9.29;91.38;98826.42;1756360;80;23803;-62
2021/10/15 04:56:40;;;;;;;5.58;4.20;;;;;;;9.29;91.39;98831.62;1755444;80;21013;-62
2021/10/15 04:59:07;;;;;;;5.28;4.37;;;;;;;9.29;91.34;98822.52;1756840;80;21020;-62
2021/10/15 05:01:33;;;;;;;6.17;4.03;;;;;;;9.28;91.32;98824.75;1759913;80;21251;-62
2021/10/15 05:04:00;;;;;;;5.97;4.37;;;;;;;9.28;91.37;98820.37;1740983;80;21048;-62
2021/10/15 05:06:26;;;;;;;5.73;4.03;;;;;;;9.29;91.35;98813.39;1726116;81;21159;-63
2021/10/15 05:09:13;;;;;;;7.30;4.93;;;;;;;9.29;91.36;98813.39;1741945;81;21018;-63
2021/10/15 05:11:31;;;;;;;;;;;;;;;9.30;91.34;98812.45;1740983;79;21714;-62
2021/10/15 05:13:57;;;;;;;9.35;4.62;;;;;;;9.31;91.34;98820.67;1740524;81;20175;-63
2021/10/15 05:16:24;;;;;;;5.72;3.77;;;;;;;9.32;91.33;98815.83;1739294;80;21127;-63
2021/10/15 05:18:51;;;;;;;7.45;4.70;;;;;;;9.32;91.34;98815.83;1735805;81;21038;-63
2021/10/15 05:21:18;;;;;;;5.70;4.22;;;;;;;9.33;91.31;98813.15;1738507;79;21002;-61
2021/10/15 05:23:45;;;;;;;6.75;4.42;;;;;;;9.35;91.26;98806.53;1734886;80;21049;-61
2021/10/15 05:26:12;;;;;;;5.83;4.25;;;;;;;9.35;91.22;98810.44;1743061;81;23432;-61
2021/10/15 05:28:39;;;;;;;6.65;4.17;;;;;;;9.34;91.20;98800.95;1744837;81;21004;-61
2021/10/15 05:31:06;;;;;;;8.13;4.42;;;;;;;9.34;91.18;98798.34;1744289;81;21910;-60
2021/10/15 05:33:33;;;;;;;8.40;4.28;;;;;;;9.34;91.16;98798.34;1741330;81;21724;-61
2021/10/15 05:35:59;;;;;;;19.52;12.28;;;;;;;9.33;91.13;98795.38;1744851;81;21086;-61
2021/10/15 05:38:26;;;;;;;52.10;28.67;;;;;;;9.33;91.12;98796.69;1740381;81;21027;-61
2021/10/15 05:40:53;;;;;;;113.37;67.10;;;;;;;9.35;91.18;98789.59;1740787;81;20943;-61
2021/10/15 05:43:20;;;;;;;143.55;80.30;;;;;;;9.36;91.12;98788.69;1739126;81;21769;-61
2021/10/15 05:45:47;;;;;;;106.75;57.70;;;;;;;9.37;91.10;98789.05;1751657;80;20940;-61
2021/10/15 05:48:13;;;;;;;14.33;8.00;;;;;;;9.38;91.09;98789.42;1747496;79;21051;-61
2021/10/15 05:50:41;;;;;;;7.95;5.80;;;;;;;9.40;91.08;98790.17;1758083;80;20973;-61
2021/10/15 05:53:12;;;;;;;7.85;5.47;;;;;;;9.42;91.10;98785.73;1754064;80;20953;-61
2021/10/15 05:55:55;;;;;;;6.72;4.75;;;;;;;9.46;91.07;98782.00;1754770;79;21160;-62
2021/10/15 06:00:51;;;;;;;6.62;5.22;;;;;;;9.49;91.05;98790.94;1757171;80;21642;-62
2021/10/15 06:03:25;;;;;;;11.73;6.17;;;;;;;9.51;90.97;98776.06;1732680;81;20924;-60
2021/10/15 06:13:49;;;;;;;7.25;5.50;;;;;;;9.54;90.98;98779.80;1731536;81;21584;-61
2021/10/15 06:14:16;;;;;;;8.38;6.17;;;;;;;9.58;90.91;98768.28;1759708;80;21045;-60
2021/10/15 06:16:32;;;;;;;10.20;6.62;;;;;;;9.59;90.93;98774.33;1754074;79;21054;-60
2021/10/15 06:19:06;;;;;;;8.08;6.03;;;;;;;9.60;90.97;98771.61;1755566;80;21073;-60
2021/10/15 06:21:33;;;;;;;7.72;6.33;;;;;;;9.61;90.95;98770.70;1762404;80;21788;-60
2021/10/15 06:24:00;;;;;;;8.55;6.60;;;;;;;9.64;91.00;98770.52;1763321;79;20983;-61
2021/10/15 06:26:27;;;;;;;10.13;6.58;;;;;;;9.67;91.00;98766.06;1762873;79;20992;-61
2021/10/15 06:28:54;;;;;;;10.82;7.65;;;;;;;9.72;90.99;98769.22;1763371;79;21564;-61
2021/10/15 06:31:23;;;;;;;12.10;8.28;;;;;;;9.75;90.94;98763.85;1763633;79;21062;-61
2021/10/15 06:33:51;;;;;;;9.50;8.00;;;;;;;9.75;90.91;98763.38;1762066;79;21047;-61
2021/10/15 06:36:17;;;;;;;12.30;7.72;;;;;;;9.78;90.94;98763.67;1764625;80;20944;-61
2021/10/15 06:38:44;;;;;;;9.35;8.40;;;;;;;9.83;90.98;98764.20;1761987;80;21033;-62
2021/10/15 06:41:11;;;;;;;8.98;7.90;;;;;;;9.90;90.95;98764.70;1765178;79;21537;-62
2021/10/15 06:43:37;;;;;;;10.60;8.10;;;;;;;9.95;90.94;98759.59;1765698;79;21581;-61
2021/10/15 06:46:10;;;;;;;15.50;11.25;;;;;;;10.01;90.89;98765.73;1763963;79;21185;-62
2021/10/15 06:48:34;;;;;;;12.73;10.00;;;;;;;10.04;90.79;98755.11;1760940;79;21530;-61
2021/10/15 06:53:09;;;;;;;12.33;8.93;;;;;;;10.18;90.84;98751.66;1833300;75;22757;-60
2021/10/15 06:55:39;;;;;;;13.22;9.35;;;;;;;10.20;90.75;98741.16;1803149;78;21063;-60
2021/10/15 06:58:18;;;;;;;11.93;9.58;;;;;;;10.24;90.68;98737.41;1808624;77;21949;-62
2021/10/15 07:00:49;;;;;;;12.95;9.40;;;;;;;10.33;90.71;98729.03;1775516;77;20986;-61
2021/10/15 07:03:36;;;;;;;12.63;9.93;;;;;;;10.39;90.54;98731.29;1774893;79;21088;-61
2021/10/15 07:06:19;;;;;;;12.63;9.38;;;;;;;10.43;90.51;98719.71;1808236;77;20970;-60
2021/10/15 07:09:03;;;;;;;;;;;;;;;;;;;;;
2021/10/15 07:11:40;;;;;;;11.12;10.03;;;;;;;10.52;90.49;98720.91;1759104;77;21535;-61
2021/10/15 07:14:21;;;;;;;12.23;10.23;;;;;;;10.53;90.28;98729.95;1818577;77;21022;-61
2021/10/15 07:17:01;;;;;;;11.00;9.60;;;;;;;10.53;90.24;98727.34;1804946;77;21000;-61
2021/10/15 07:19:49;;;;;;;13.90;10.45;;;;;;;10.53;90.34;98731.26;1817054;77;20936;-61
2021/10/15 07:22:36;;;;;;;13.32;10.68;;;;;;;10.50;90.23;98728.84;1787841;78;20978;-60
2021/10/15 07:25:10;;;;;;;13.98;9.93;;;;;;;10.47;90.24;98734.27;1763406;79;21009;-61
2021/10/15 07:28:02;;;;;;;13.08;10.45;;;;;;;10.48;90.32;98730.70;1789482;79;20882;-60
2021/10/15 07:30:43;;;;;;;20.90;14.05;;;;;;;10.48;90.33;98728.09;1783509;78;21495;-61
2021/10/15 07:33:10;;;;;;;14.50;11.33;;;;;;;10.56;90.51;98726.76;1813619;77;20941;-61
2021/10/15 07:35:55;;;;;;;14.58;10.53;;;;;;;10.60;90.33;98709.98;1785604;79;20969;-61
2021/10/15 07:38:45;;;;;;;12.88;10.28;;;;;;;10.64;90.35;98724.50;1810127;77;21015;-61
2021/10/15 07:41:39;;;;;;;15.28;11.05;;;;;;;10.64;90.17;98714.06;1812715;77;20957;-61
2021/10/15 07:44:21;;;;;;;15.75;11.60;;;;;;;10.65;90.14;98710.53;1808412;77;21078;-61
2021/10/15 07:46:54;;;;;;;17.40;11.45;;;;;;;10.64;90.09;98702.31;1773813;79;21000;-62
2021/10/15 07:49:27;;;;;;;14.07;11.18;;;;;;;10.66;89.99;98704.37;1811820;77;21051;-62
2021/10/15 07:52:07;;;;;;;12.88;10.45;;;;;;;10.69;90.01;98698.95;1795147;78;21551;-62
2021/10/15 07:54:44;;;;;;;13.32;11.10;;;;;;;10.72;90.08;98694.36;1784025;79;26423;-62
2021/10/15 07:57:24;;;;;;;14.35;11.03;;;;;;;10.79;90.09;98707.05;1811132;78;21024;-62
2021/10/15 08:01:31;;;;;;;12.78;10.43;;;;;;;10.95;89.97;98687.67;1818841;76;25674;-61
2021/10/15 08:04:21;;;;;;;;;;;;;;;;;;;;;
2021/10/15 08:06:45;;;;;;;14.18;10.85;;;;;;;11.00;89.74;98689.13;1802800;77;21147;-61
2021/10/15 08:09:28;;;;;;;13.13;10.65;;;;;;;11.11;89.93;98687.96;1812241;76;21537;-62
2021/10/15 08:12:08;;;;;;;16.60;11.48;;;;;;;11.21;89.87;98686.42;1801807;77;21044;-61
2021/10/15 08:15:05;;;;;;;14.13;11.78;;;;;;;11.30;89.66;98684.50;1809497;77;21179;-61
2021/10/15 08:17:52;;;;;;;16.07;11.93;;;;;;;11.33;89.54;98686.91;1770187;78;21016;-61
2021/10/15 08:20:40;;;;;;;13.15;11.57;;;;;;;11.38;89.59;98678.29;1781568;78;20996;-61
2021/10/15 08:23:16;;;;;;;15.30;11.83;;;;;;;11.39;89.38;98678.65;1741796;79;21601;-62
2021/10/15 08:25:50;;;;;;;20.85;13.45;;;;;;;11.34;89.42;98678.14;1778736;78;20910;-61
2021/10/15 08:28:40;;;;;;;19.15;12.10;;;;;;;11.39;89.58;98670.80;1794997;77;21049;-61
2021/10/15 08:31:18;;;;;;;13.62;11.97;;;;;;;11.40;89.38;98677.73;1780587;77;20878;-61
2021/10/15 08:33:55;;;;;;;17.12;12.10;;;;;;;11.40;89.32;98674.28;1782612;78;22288;-61
2021/10/15 08:36:33;;;;;;;17.32;13.30;;;;;;;11.35;89.08;98674.58;1788698;78;20941;-60
2021/10/15 08:39:16;;;;;;;15.93;12.65;;;;;;;11.33;89.16;98668.61;1788618;78;21001;-62
2021/10/15 10:36:43;;;;;;;9.00;8.10;;;;;;;11.42;86.97;98637.92;1782202;77;22576;-72
2021/10/15 10:39:26;;;;;;;11.83;7.67;;;;;;;11.47;87.03;98628.47;1784513;79;20929;-73
2021/10/15 10:42:09;;;;;;;21.15;8.60;;;;;;;11.54;87.11;98636.72;1786384;78;21888;-76
2021/10/15 10:44:40;;;;;;;16.02;7.78;;;;;;;11.57;86.87;98628.70;1793460;79;21059;-76
2021/10/15 10:47:17;;;;;;;14.23;7.10;;;;;;;11.58;86.80;98630.36;1749782;80;21552;-75
2021/10/15 10:50:09;;;;;;;10.72;6.65;;;;;;;11.58;86.73;98632.97;1752519;80;21038;-74
2021/10/15 10:52:49;;;;;;;9.15;6.67;;;;;;;11.61;86.60;98626.22;1746787;80;21440;-75
2021/10/15 10:55:47;;;;;;;11.45;6.72;;;;;;;11.57;86.38;98631.31;1731964;81;21086;-73
2021/10/15 10:58:37;;;;;;;8.10;6.70;;;;;;;11.53;86.44;98629.83;1735712;81;22217;-75
2021/10/15 11:01:25;;;;;;;10.68;6.80;;;;;;;11.51;86.49;98626.48;1731477;81;21517;-75
2021/10/15 11:03:50;;;;;;;7.58;5.55;;;;;;;11.49;86.52;98620.54;1736422;81;21036;-73
2021/10/15 11:06:17;;;;;;;7.33;6.33;;;;;;;11.49;86.42;98623.16;1733898;81;21024;-73
2021/10/15 11:08:46;;;;;;;8.50;6.85;;;;;;;11.48;86.42;98621.46;1736032;81;23161;-74
2021/10/15 11:11:33;;;;;;;10.18;5.92;;;;;;;11.44;86.19;98620.84;1737082;81;21115;-75
2021/10/15 11:13:55;;;;;;;6.85;5.47;;;;;;;11.41;86.22;98616.66;1731691;81;21077;-73
2021/10/15 11:16:30;;;;;;;6.97;5.75;;;;;;;11.48;86.34;98613.63;1743468;80;21504;-71
2021/10/15 11:18:57;;;;;;;10.50;5.97;;;;;;;11.54;86.34;98605.35;1735389;81;21017;-72
2021/10/15 11:21:24;;;;;;;6.25;5.53;;;;;;;11.58;86.20;98601.59;1707044;81;21729;-71
2021/10/15 11:23:53;;;;;;;8.45;5.87;;;;;;;11.59;86.20;98609.32;1710820;81;21130;-71
2021/10/15 11:26:33;;;;;;;12.20;5.72;;;;;;;11.62;86.01;98603.05;1738237;81;21052;-71
2021/10/15 11:29:00;;;;;;;9.60;5.22;;;;;;;11.60;86.08;98601.86;1740756;80;21515;-71
2021/10/15 11:31:27;;;;;;;6.42;5.47;;;;;;;11.67;86.08;98603.56;1740770;81;20957;-71
2021/10/15 11:33:53;;;;;;;7.50;5.50;;;;;;;11.73;86.09;98610.98;1734501;81;21637;-71
2021/10/15 11:36:24;;;;;;;6.28;4.72;;;;;;;11.77;85.95;98599.37;1736231;80;21739;-71
2021/10/15 11:39:21;;;;;;;8.10;5.53;;;;;;;11.79;85.72;98591.41;1698366;82;21000;-71
2021/10/15 11:41:52;;;;;;;9.50;5.35;;;;;;;11.79;85.73;98594.89;1597441;88;28641;-70
2021/10/15 11:44:47;;;;;;;8.05;5.20;;;;;;;11.80;85.71;98593.93;1598137;88;21124;-72
2021/10/15 11:47:33;;;;;;;5.08;4.58;;;;;;;11.83;85.86;98591.58;1598072;88;21095;-71
2021/10/15 11:50:19;;;;;;;7.53;4.80;;;;;;;11.91;85.83;98593.22;1600716;88;21055;-71
2021/10/15 11:53:04;;;;;;;5.75;4.72;;;;;;;11.93;85.60;98591.78;1626075;86;21120;-70
2021/10/15 11:55:44;;;;;;;6.35;5.37;;;;;;;11.94;85.46;98600.02;1625455;86;21044;-70
2021/10/15 11:58:41;;;;;;;9.65;6.40;;;;;;;11.90;85.47;98603.77;1613236;86;21390;-70
2021/10/15 12:01:43;;;;;;;5.63;5.07;;;;;;;11.93;85.77;98593.09;1625029;86;21092;-72
2021/10/15 12:04:14;;;;;;;9.88;5.25;;;;;;;11.95;85.59;98592.52;1621675;86;21407;-71
2021/10/15 12:06:53;;;;;;;6.90;4.60;;;;;;;11.94;85.51;98594.78;1622762;86;28318;-73
2021/10/15 12:09:35;;;;;;;7.58;5.50;;;;;;;11.88;85.45;98592.60;1623363;86;22144;-72
2021/10/15 12:12:17;;;;;;;7.40;5.22;;;;;;;11.83;85.46;98601.56;1621912;86;21104;-72
2021/10/15 12:15:07;;;;;;;5.65;4.87;;;;;;;11.80;85.69;98593.10;1625731;86;21361;-74
2021/10/15 12:17:53;;;;;;;6.97;4.70;;;;;;;11.78;85.57;98591.05;1621115;86;21040;-73
2021/10/15 12:20:34;;;;;;;4.95;4.47;;;;;;;11.71;85.48;98591.97;1609047;87;22038;-74
2021/10/15 12:23:07;;;;;;;5.65;4.50;;;;;;;11.66;85.75;98599.30;1624237;86;21139;-74
2021/10/15 12:25:35;;;;;;;5.75;4.28;;;;;;;11.62;85.64;98600.43;1594840;88;21748;-73
2021/10/15 12:28:17;;;;;;;5.80;4.67;;;;;;;11.55;85.58;98588.74;1625125;86;21849;-76
2021/10/15 12:30:45;;;;;;;6.08;5.25;;;;;;;11.46;85.62;98594.62;1620603;86;21716;-75
2021/10/15 12:33:17;;;;;;;9.85;5.60;;;;;;;11.37;85.67;98597.36;1620424;86;21733;-74
2021/10/15 12:35:44;;;;;;;7.10;4.57;;;;;;;11.33;85.82;98598.05;1621701;86;21049;-75
2021/10/15 12:38:20;;;;;;;6.10;4.85;;;;;;;11.31;85.84;98605.15;1601590;86;21061;-74
2021/10/15 12:40:54;;;;;;;6.83;4.87;;;;;;;11.28;85.82;98600.14;1637729;84;21131;-76
2021/10/15 12:43:21;;;;;;;7.25;4.92;;;;;;;11.21;85.85;98594.98;1653288;84;27630;-76
2021/10/15 12:45:55;;;;;;;5.85;5.28;;;;;;;11.16;85.85;98596.58;1624348;87;21051;-76
2021/10/15 12:48:28;;;;;;;7.10;5.08;;;;;;;11.12;85.93;98594.30;1648194;85;21696;-73
2021/10/15 12:51:11;;;;;;;6.70;5.22;;;;;;;11.09;86.01;98599.70;1648933;85;21048;-74
2021/10/15 12:53:49;;;;;;;6.60;4.95;;;;;;;11.07;86.11;98591.98;1626945;85;21153;-76
2021/10/15 12:56:20;;;;;;;5.85;5.03;;;;;;;11.05;86.11;98595.64;1661504;84;21084;-75
2021/10/15 12:58:57;;;;;;;5.40;4.65;;;;;;;11.01;86.05;98598.07;1635537;86;21212;-74
2021/10/15 13:01:32;;;;;;;6.75;4.85;;;;;;;10.98;86.20;98598.67;1650720;85;21079;-76
2021/10/15 13:04:13;;;;;;;5.78;4.62;;;;;;;10.91;86.07;98600.00;1639115;86;21670;-74
2021/10/15 13:06:55;;;;;;;9.25;5.08;;;;;;;10.85;86.24;98600.41;1637026;86;21046;-75
2021/10/15 13:09:31;;;;;;;5.37;4.75;;;;;;;10.83;86.34;98610.11;1635743;86;21064;-74
2021/10/15 13:12:14;;;;;;;6.15;4.85;;;;;;;10.82;86.42;98612.37;1634616;86;21037;-75
2021/10/15 13:14:56;;;;;;;7.12;5.25;;;;;;;10.81;86.40;98605.93;1636867;86;21614;-75
2021/10/15 13:17:28;;;;;;;6.85;4.30;;;;;;;10.79;86.48;98617.80;1658311;85;21031;-75
2021/10/15 13:20:07;;;;;;;8.28;4.30;;;;;;;10.77;86.58;98639.72;1617464;85;21097;-76
2021/10/15 13:22:45;;;;;;;10.48;3.17;;;;;;;10.63;86.64;98665.41;1662388;84;21084;-75
2021/10/15 13:25:13;;;;;;;2.92;1.95;;;;;;;10.46;86.30;98658.19;1637527;84;21057;-74
2021/10/15 13:27:39;;;;;;;3.27;1.30;;;;;;;10.23;86.04;98654.88;1644524;85;22802;-75
2021/10/15 13:30:14;;;;;;;2.03;1.03;;;;;;;9.95;86.39;98660.49;1643126;85;21104;-75
2021/10/15 13:32:53;;;;;;;3.17;1.20;;;;;;;9.95;86.39;98660.49;1633362;86;21409;-75
2021/10/15 13:35:30;;;;;;;1.40;0.98;;;;;;;9.89;86.37;98667.39;1643175;85;21053;-77
2021/10/15 13:38:13;;;;;;;15.25;2.02;;;;;;;9.79;86.28;98663.66;1636176;86;21458;-77
2021/10/15 13:41:08;;;;;;;;;;;;;;;9.69;86.32;98672.95;1647228;85;22293;-77
2021/10/15 13:43:36;;;;;;;32.28;6.08;;;;;;;9.62;86.50;98678.55;1636900;85;20317;-74
2021/10/15 13:46:13;;;;;;;152.15;31.40;;;;;;;9.59;86.68;98683.95;1646188;86;22331;-75
2021/10/15 13:51:44;;;;;;;216.42;41.63;;;;;;;9.54;86.59;98678.16;1641220;86;20997;-71
2021/10/15 13:54:25;;;;;;;247.93;49.88;;;;;;;9.48;86.76;98691.56;1642874;86;21052;-73
2021/10/15 13:57:22;;;;;;;120.00;18.75;;;;;;;9.48;86.81;98695.94;1637838;85;21070;-71
2021/10/15 14:02:51;;;;;;;192.25;36.13;;;;;;;9.38;86.86;98709.95;1659577;84;22228;-73
2021/10/15 14:05:23;;;;;;;76.25;13.08;;;;;;;9.33;86.74;98714.63;1671416;83;21577;-74
2021/10/15 14:07:56;;;;;;;125.15;19.45;;;;;;;9.28;86.82;98724.47;1688319;83;22227;-74
2021/10/15 14:10:39;;;;;;;117.82;23.45;;;;;;;9.24;86.81;98722.95;1676186;83;20994;-74
2021/10/15 14:13:23;;;;;;;145.12;25.32;;;;;;;9.20;86.88;98710.58;1678683;83;21312;-74
2021/10/15 14:16:06;;;;;;;175.72;29.48;;;;;;;9.15;86.90;98713.43;1678212;83;21065;-72
2021/10/15 14:18:43;;;;;;;84.22;15.98;;;;;;;9.10;86.92;98710.28;1675911;83;21099;-74